KSEG/SEG METAR and TAF weather

Enter ICAO airport designator
Station Type Date Time Source
KSEG METAR 2019/02/18 03:53 UTC NOAA

KSEG 180353Z AUTO 16009KT 6SM -FZRA OVC020 00/M03 A2986 RMK AO2 UPE0256B39E41FZRAB41 SLP117 P0001 I1001 T00001028


Station Type Date Time Source
KSEG Decoded METAR 2019/02/18 03:53 UTC NOAA

SELINSGROVE PENN VALLEY AIRPORT , PA, United States (KSEG) 40-49N 076-52W 134M
Feb 17, 2019 - 10:53 PM EST / 2019.02.18 0353 UTC
Wind: from the SSE (160 degrees) at 10 MPH (9 KT):0
Visibility: 6 mile(s):0
Sky conditions: overcast
Weather: light freezing rain
Precipitation last hour: 0.01 inches
Temperature: 32.0 F (0.0 C)
Windchill: 23 F (-5 C):1
Dew Point: 27.0 F (-2.8 C)
Relative Humidity: 81%
Pressure (altimeter): 29.86 in. Hg (1011 hPa)
ob: KSEG 180353Z AUTO 16009KT 6SM -FZRA OVC020 00/M03 A2986 RMK AO2 UPE0256B39E41FZRAB41 SLP117 P0001 I1001 T00001028
cycle: 4

Station Type Date Time Source
KSEG TAF UTC NOAA

Error!


Example: see airport list